createdAt,value
2023-02-03T00:00:08.625Z,71.76
2023-02-03T00:02:36.353Z,71.49
2023-02-03T00:05:04.142Z,71.81
2023-02-03T00:07:32.023Z,71.22
2023-02-03T00:10:01.106Z,71.30
2023-02-03T00:12:29.243Z,71.61
2023-02-03T00:14:57.059Z,71.83
2023-02-03T00:17:24.783Z,71.75
2023-02-03T00:19:52.458Z,72.15
2023-02-03T00:22:20.207Z,72.12
2023-02-03T00:24:47.944Z,71.45
2023-02-03T00:27:17.027Z,71.66
2023-02-03T00:29:44.709Z,72.07
2023-02-03T00:32:12.560Z,71.80
2023-02-03T00:34:40.315Z,71.46
2023-02-03T00:37:08.098Z,71.71
2023-02-03T00:39:38.004Z,71.55
2023-02-03T00:44:42.292Z,72.00
2023-02-03T00:47:10.061Z,72.25
2023-02-03T00:49:37.735Z,71.54
2023-02-03T00:52:06.072Z,72.05
2023-02-03T00:54:33.915Z,71.85
2023-02-03T00:57:01.664Z,71.64
2023-02-03T00:59:29.406Z,71.54
2023-02-03T01:01:58.486Z,71.91
2023-02-03T01:04:26.400Z,71.51
2023-02-03T01:06:56.209Z,71.97
2023-02-03T01:09:24.187Z,71.40
2023-02-03T01:11:51.903Z,71.62
2023-02-03T01:14:19.628Z,71.80
2023-02-03T01:16:47.465Z,72.14
2023-02-03T01:19:16.877Z,71.56
2023-02-03T01:21:44.593Z,71.09
2023-02-03T01:24:12.589Z,71.10
2023-02-03T01:26:40.301Z,71.29
2023-02-03T01:29:08.636Z,70.96
2023-02-03T01:31:39.717Z,71.66
2023-02-03T01:34:08.608Z,71.11
2023-02-03T01:36:37.680Z,71.18
2023-02-03T01:39:07.049Z,71.36
2023-02-03T01:41:36.562Z,71.19
2023-02-03T01:44:37.194Z,71.52
2023-02-03T01:47:06.256Z,70.84
2023-02-03T01:49:37.101Z,70.97
2023-02-03T01:52:06.757Z,71.44
2023-02-03T01:54:40.236Z,71.24
2023-02-03T01:57:14.468Z,70.95
2023-02-03T01:59:43.465Z,71.31
2023-02-03T02:02:12.311Z,71.27
2023-02-03T02:04:49.808Z,71.08
2023-02-03T02:07:18.896Z,71.37
2023-02-03T02:09:47.805Z,71.32
2023-02-03T02:12:15.593Z,70.57
2023-02-03T02:14:45.588Z,71.29
2023-02-03T02:17:38.163Z,70.52
2023-02-03T02:20:33.984Z,71.08
2023-02-03T02:23:44.278Z,70.85
2023-02-03T02:26:38.505Z,71.05
2023-02-03T02:29:24.956Z,70.97
2023-02-03T02:32:06.175Z,70.64
2023-02-03T02:34:45.042Z,71.00
2023-02-03T02:37:21.822Z,70.91
2023-02-03T02:39:54.760Z,70.88
2023-02-03T02:42:31.697Z,70.46
2023-02-03T02:45:07.967Z,70.99
2023-02-03T02:47:37.089Z,70.42
2023-02-03T02:50:12.547Z,70.44
2023-02-03T02:52:43.598Z,70.28
2023-02-03T02:55:16.196Z,70.29
2023-02-03T02:57:45.248Z,70.78
2023-02-03T03:00:14.002Z,70.97
2023-02-03T03:02:43.105Z,70.15
2023-02-03T03:05:13.203Z,70.58
2023-02-03T03:07:46.366Z,70.86
2023-02-03T03:10:18.211Z,70.74
2023-02-03T03:12:50.094Z,70.46
2023-02-03T03:15:23.936Z,70.64
2023-02-03T03:17:59.406Z,70.19
2023-02-03T03:20:28.695Z,70.16
2023-02-03T03:23:00.598Z,70.31
2023-02-03T03:25:33.483Z,70.58
2023-02-03T03:28:06.898Z,70.30
2023-02-03T03:30:37.448Z,70.23
2023-02-03T03:33:08.542Z,70.37
2023-02-03T03:35:42.529Z,70.46
2023-02-03T03:38:15.449Z,70.51
2023-02-03T03:40:48.627Z,70.72
2023-02-03T03:43:20.645Z,70.04
2023-02-03T03:45:53.252Z,70.30
2023-02-03T03:48:28.334Z,70.07
2023-02-03T03:51:01.149Z,69.95
2023-02-03T03:53:31.338Z,70.02
2023-02-03T03:56:02.182Z,69.99
2023-02-03T03:58:32.412Z,70.21
2023-02-03T04:01:03.739Z,70.33
2023-02-03T04:03:38.575Z,70.27
2023-02-03T04:06:07.288Z,70.16
2023-02-03T04:08:35.104Z,70.44
2023-02-03T04:11:02.863Z,69.81
2023-02-03T04:13:30.561Z,69.90
2023-02-03T04:15:58.323Z,70.16
2023-02-03T04:18:26.190Z,70.14
2023-02-03T04:20:55.309Z,70.02
2023-02-03T04:23:23.042Z,70.42
2023-02-03T04:25:50.707Z,69.70
2023-02-03T04:28:18.455Z,70.02
2023-02-03T04:30:46.359Z,69.40
2023-02-03T04:33:14.137Z,70.08
2023-02-03T04:35:41.861Z,69.61
2023-02-03T04:38:10.961Z,69.92
2023-02-03T04:40:38.698Z,70.17
2023-02-03T04:43:09.589Z,69.46
2023-02-03T04:45:37.421Z,69.60
2023-02-03T04:48:05.646Z,70.07
2023-02-03T04:50:33.385Z,69.96
2023-02-03T04:53:01.238Z,70.00
2023-02-03T04:55:30.324Z,69.59
2023-02-03T04:57:58.754Z,69.28
2023-02-03T05:00:27.376Z,70.14
2023-02-03T05:02:55.827Z,69.33
2023-02-03T05:05:23.575Z,69.66
2023-02-03T05:07:51.272Z,70.09
2023-02-03T05:10:19.157Z,69.72
2023-02-03T05:12:48.309Z,69.92
2023-02-03T05:15:16.143Z,69.96
2023-02-03T05:17:43.883Z,69.61
2023-02-03T05:20:12.759Z,69.67
2023-02-03T05:22:40.792Z,69.48
2023-02-03T05:25:09.598Z,69.34
2023-02-03T05:27:39.368Z,69.44
2023-02-03T05:30:10.324Z,69.66
2023-02-03T05:32:38.026Z,69.82
2023-02-03T05:35:06.138Z,69.85
2023-02-03T05:37:33.869Z,69.81
2023-02-03T05:40:15.529Z,70.07
2023-02-03T05:42:48.088Z,69.62
2023-02-03T05:45:17.449Z,69.79
2023-02-03T05:47:45.239Z,70.02
2023-02-03T05:50:13.089Z,69.67
2023-02-03T05:52:40.837Z,69.80
2023-02-03T05:55:08.977Z,69.83
2023-02-03T05:57:36.665Z,69.99
2023-02-03T06:00:05.025Z,69.47
2023-02-03T06:02:34.141Z,69.27
2023-02-03T06:05:01.880Z,69.82
2023-02-03T06:07:29.618Z,69.88
2023-02-03T06:09:57.374Z,70.00
2023-02-03T06:12:26.972Z,69.61
2023-02-03T06:14:55.927Z,69.90
2023-02-03T06:17:23.656Z,69.39
2023-02-03T06:19:53.055Z,69.64
2023-02-03T06:22:20.729Z,69.46
2023-02-03T06:24:48.608Z,69.49
2023-02-03T06:27:16.843Z,69.19
2023-02-03T06:29:44.607Z,69.49
2023-02-03T06:32:12.343Z,69.45
2023-02-03T06:34:40.009Z,69.37
2023-02-03T06:37:09.149Z,69.77
2023-02-03T06:39:36.970Z,68.96
2023-02-03T06:42:04.929Z,69.25
2023-02-03T06:44:32.684Z,69.69
2023-02-03T06:47:02.005Z,69.92
2023-02-03T06:49:30.105Z,69.65
2023-02-03T06:51:57.858Z,69.70
2023-02-03T06:54:26.969Z,69.41
2023-02-03T06:56:54.659Z,69.29
2023-02-03T06:59:22.397Z,69.88
2023-02-03T07:01:50.214Z,69.35
2023-02-03T07:04:18.114Z,69.33
2023-02-03T07:06:45.832Z,69.74
2023-02-03T07:09:13.618Z,69.55
2023-02-03T07:11:42.924Z,69.75
2023-02-03T07:14:10.690Z,69.28
2023-02-03T07:16:38.374Z,69.13
2023-02-03T07:19:07.237Z,69.67
2023-02-03T07:21:35.047Z,69.27
2023-02-03T07:24:03.427Z,69.34
2023-02-03T07:26:31.212Z,69.47
2023-02-03T07:29:00.936Z,69.61
2023-02-03T07:31:29.081Z,69.54
2023-02-03T07:33:57.321Z,69.73
2023-02-03T07:36:25.638Z,69.37
2023-02-03T07:38:53.402Z,69.30
2023-02-03T07:41:21.162Z,69.66
2023-02-03T07:43:49.116Z,69.24
2023-02-03T07:46:18.276Z,69.19
2023-02-03T07:48:46.136Z,69.72
2023-02-03T07:51:13.902Z,69.28
2023-02-03T07:53:41.607Z,69.17
2023-02-03T07:56:09.336Z,69.16
2023-02-03T07:58:37.086Z,69.39
2023-02-03T08:01:11.740Z,69.21
2023-02-03T08:03:41.035Z,69.10
2023-02-03T08:06:09.157Z,69.38
2023-02-03T08:08:37.269Z,69.79
2023-02-03T08:11:05.306Z,69.74
2023-02-03T08:13:33.014Z,69.62
2023-02-03T08:16:00.935Z,69.89
2023-02-03T08:18:30.944Z,69.37
2023-02-03T08:21:03.641Z,69.77
2023-02-03T08:23:31.541Z,69.84
2023-02-03T08:25:59.304Z,69.63
2023-02-03T08:28:27.126Z,69.98
2023-02-03T08:30:56.206Z,69.83
2023-02-03T08:33:24.050Z,69.33
2023-02-03T08:35:52.129Z,69.55
2023-02-03T08:38:21.900Z,69.96
2023-02-03T08:40:49.633Z,69.58
2023-02-03T08:43:17.360Z,70.04
2023-02-03T08:45:45.343Z,69.53
2023-02-03T08:48:13.306Z,69.63
2023-02-03T08:50:42.902Z,69.57
2023-02-03T08:53:10.803Z,68.50
2023-02-03T08:55:41.346Z,67.99
2023-02-03T08:58:09.111Z,67.99
2023-02-03T09:00:36.856Z,67.46
2023-02-03T09:03:05.145Z,66.79
2023-02-03T09:05:33.080Z,66.53
2023-02-03T09:08:00.826Z,66.41
2023-02-03T09:10:29.058Z,66.41
2023-02-03T09:12:58.933Z,66.86
2023-02-03T09:15:27.064Z,67.49
2023-02-03T09:17:56.578Z,67.57
2023-02-03T09:20:26.426Z,68.20
2023-02-03T09:22:55.054Z,68.33
2023-02-03T09:25:22.821Z,68.56
2023-02-03T09:27:50.606Z,68.63
2023-02-03T09:30:20.145Z,69.05
2023-02-03T09:32:54.075Z,68.84
2023-02-03T09:35:21.845Z,69.04
2023-02-03T09:37:49.942Z,69.61
2023-02-03T09:40:23.232Z,69.14
2023-02-03T09:43:30.108Z,69.59
2023-02-03T09:46:05.050Z,69.40
2023-02-03T09:48:38.356Z,69.93
2023-02-03T09:51:15.920Z,69.77
2023-02-03T09:53:49.654Z,69.87
2023-02-03T09:56:27.844Z,70.14
2023-02-03T09:58:55.904Z,70.02
2023-02-03T10:01:26.794Z,70.69
2023-02-03T10:04:02.530Z,70.60
2023-02-03T10:06:37.163Z,70.25
2023-02-03T10:09:21.704Z,70.42
2023-02-03T10:12:08.209Z,70.36
2023-02-03T10:14:52.328Z,70.44
2023-02-03T10:17:30.641Z,70.78
2023-02-03T10:20:05.098Z,70.64
2023-02-03T10:22:37.705Z,70.76
2023-02-03T10:25:13.241Z,71.00
2023-02-03T10:27:44.188Z,70.62
2023-02-03T10:30:20.404Z,70.83
2023-02-03T10:32:53.193Z,71.19
2023-02-03T10:35:22.711Z,70.71
2023-02-03T10:37:55.054Z,70.95
2023-02-03T10:40:26.151Z,70.76
2023-02-03T10:43:11.668Z,70.70
2023-02-03T10:45:40.239Z,70.89
2023-02-03T10:48:17.027Z,70.99
2023-02-03T10:50:49.132Z,71.33
2023-02-03T10:53:25.866Z,71.53
2023-02-03T10:56:03.287Z,71.26
2023-02-03T10:58:33.382Z,71.52
2023-02-03T11:01:07.856Z,71.54
2023-02-03T11:03:37.087Z,70.91
2023-02-03T11:06:07.727Z,71.10
2023-02-03T11:08:36.414Z,71.16
2023-02-03T11:11:06.172Z,70.74
2023-02-03T11:13:34.073Z,71.29
2023-02-03T11:16:04.931Z,71.24
2023-02-03T11:18:55.634Z,71.06
2023-02-03T11:21:25.039Z,71.13
2023-02-03T11:24:02.147Z,71.11
2023-02-03T11:26:32.349Z,71.48
2023-02-03T11:29:02.627Z,71.60
2023-02-03T11:31:33.163Z,71.42
2023-02-03T11:34:05.638Z,71.23
2023-02-03T11:36:36.051Z,71.85
2023-02-03T11:39:19.937Z,71.27
2023-02-03T11:41:48.465Z,71.48
2023-02-03T11:44:21.251Z,71.49
2023-02-03T11:46:53.369Z,71.45
2023-02-03T11:50:04.176Z,71.95
2023-02-03T11:53:02.584Z,71.47
2023-02-03T11:55:42.379Z,71.57
2023-02-03T11:58:28.404Z,71.59
2023-02-03T12:01:07.221Z,72.09
2023-02-03T12:04:10.318Z,71.43
2023-02-03T12:07:02.235Z,71.93
2023-02-03T12:09:46.393Z,71.58
2023-02-03T12:12:37.539Z,71.85
2023-02-03T12:15:22.688Z,71.17
2023-02-03T12:18:03.496Z,71.01
2023-02-03T12:20:45.446Z,70.23
2023-02-03T12:23:39.572Z,69.51
2023-02-03T12:26:19.335Z,68.79
2023-02-03T12:28:57.723Z,68.32
2023-02-03T12:31:31.691Z,67.88
2023-02-03T12:34:08.120Z,67.33
2023-02-03T12:36:41.605Z,66.60
2023-02-03T12:39:18.309Z,66.28
2023-02-03T12:41:53.279Z,66.05
2023-02-03T12:44:26.906Z,65.93
2023-02-03T12:47:02.035Z,65.61
2023-02-03T12:49:40.907Z,65.85
2023-02-03T12:52:18.622Z,65.85
2023-02-03T12:54:53.805Z,65.93
2023-02-03T12:57:29.302Z,66.45
2023-02-03T13:00:19.941Z,66.83
2023-02-03T13:03:00.572Z,67.46
2023-02-03T13:05:35.189Z,68.01
2023-02-03T13:08:12.122Z,68.36
2023-02-03T13:10:48.636Z,68.62
2023-02-03T13:13:27.107Z,68.81
2023-02-03T13:15:56.911Z,69.19
2023-02-03T13:18:29.578Z,69.55
2023-02-03T13:20:57.643Z,69.81
2023-02-03T13:23:26.313Z,69.75
2023-02-03T13:26:13.559Z,70.10
2023-02-03T13:28:59.062Z,70.54
2023-02-03T13:31:39.569Z,70.59
2023-02-03T13:34:33.913Z,70.49
2023-02-03T13:37:53.572Z,70.41
2023-02-03T13:40:29.904Z,70.16
2023-02-03T13:43:01.310Z,69.82
2023-02-03T13:45:34.648Z,69.31
2023-02-03T13:48:10.501Z,68.68
2023-02-03T13:50:40.131Z,68.15
2023-02-03T13:53:15.765Z,67.58
2023-02-03T13:55:46.194Z,67.51
2023-02-03T13:58:22.653Z,67.44
2023-02-03T14:01:08.539Z,67.82
2023-02-03T14:03:44.759Z,68.11
2023-02-03T14:07:02.263Z,68.58
2023-02-03T14:10:05.973Z,69.00
2023-02-03T14:12:36.275Z,69.20
2023-02-03T14:15:21.019Z,69.46
2023-02-03T14:18:22.616Z,69.65
2023-02-03T14:21:10.850Z,69.77
2023-02-03T14:23:50.369Z,69.86
2023-02-03T14:26:33.100Z,69.77
2023-02-03T14:29:02.627Z,70.03
2023-02-03T14:31:30.517Z,70.01
2023-02-03T14:34:13.252Z,70.02
2023-02-03T14:36:54.965Z,70.16
2023-02-03T14:39:56.242Z,69.96
2023-02-03T14:42:36.659Z,70.42
2023-02-03T14:45:17.524Z,70.55
2023-02-03T14:47:57.921Z,70.39
2023-02-03T14:50:36.111Z,70.74
2023-02-03T14:53:24.672Z,70.69
2023-02-03T14:56:07.822Z,70.69
2023-02-03T14:58:41.202Z,70.41
2023-02-03T15:01:09.206Z,69.93
2023-02-03T15:03:41.850Z,69.59
2023-02-03T15:06:39.889Z,68.94
2023-02-03T15:09:23.848Z,68.59
2023-02-03T15:11:51.808Z,68.09
2023-02-03T15:14:23.370Z,67.81
2023-02-03T15:16:56.074Z,67.78
2023-02-03T15:19:26.291Z,67.35
2023-02-03T15:21:54.278Z,67.78
2023-02-03T15:24:25.783Z,68.07
2023-02-03T15:26:55.134Z,68.48
2023-02-03T15:29:29.285Z,68.98
2023-02-03T15:32:04.022Z,69.35
2023-02-03T15:34:36.405Z,69.76
2023-02-03T15:37:09.653Z,70.01
2023-02-03T15:39:46.831Z,70.34
2023-02-03T15:42:20.623Z,70.21
2023-02-03T15:44:52.669Z,70.44
2023-02-03T15:47:26.215Z,70.54
2023-02-03T15:50:03.865Z,70.63
2023-02-03T15:52:36.173Z,70.61
2023-02-03T15:55:33.105Z,70.67
2023-02-03T15:58:01.400Z,70.65
2023-02-03T16:00:36.340Z,70.58
2023-02-03T16:03:07.946Z,70.59
2023-02-03T16:05:37.518Z,70.78
2023-02-03T16:08:35.835Z,70.85
2023-02-03T16:11:26.763Z,70.93
2023-02-03T16:13:56.521Z,71.20
2023-02-03T16:16:27.589Z,71.20
2023-02-03T16:18:57.936Z,71.30
2023-02-03T16:21:32.422Z,71.71
2023-02-03T16:24:00.905Z,71.45
2023-02-03T16:26:31.230Z,71.57
2023-02-03T16:29:33.225Z,71.95
2023-02-03T16:32:19.590Z,71.91
2023-02-03T16:35:05.088Z,72.41
2023-02-03T16:37:52.431Z,72.48
2023-02-03T16:40:38.811Z,72.47
2023-02-03T16:43:31.179Z,72.44
2023-02-03T16:46:17.802Z,72.61
2023-02-03T16:49:03.493Z,72.73
2023-02-03T16:51:40.345Z,73.04
2023-02-03T16:54:08.500Z,72.85
2023-02-03T16:56:36.235Z,72.85
2023-02-03T16:59:05.426Z,72.54
2023-02-03T17:01:33.231Z,72.79
2023-02-03T17:04:00.980Z,72.57
2023-02-03T17:06:28.919Z,72.91
2023-02-03T17:08:58.802Z,72.55
2023-02-03T17:11:27.026Z,72.41
2023-02-03T17:13:54.829Z,72.40
2023-02-03T17:16:26.242Z,72.48
2023-02-03T17:18:55.349Z,72.54
2023-02-03T17:21:25.515Z,72.25
2023-02-03T17:23:53.671Z,72.16
2023-02-03T17:26:21.461Z,72.00
2023-02-03T17:28:49.250Z,72.30
2023-02-03T17:31:18.770Z,71.95
2023-02-03T17:33:52.515Z,72.27
2023-02-03T17:36:21.654Z,72.33
2023-02-03T17:55:26.248Z,72.21
2023-02-03T17:57:53.993Z,72.20
2023-02-03T18:00:22.176Z,72.26
2023-02-03T18:02:51.387Z,72.27
2023-02-03T18:05:20.560Z,72.49
2023-02-03T18:10:21.022Z,72.33
2023-02-03T18:12:49.115Z,72.36
2023-02-03T18:15:16.957Z,72.34
2023-02-03T18:17:44.753Z,72.41
2023-02-03T18:20:13.778Z,72.56
2023-02-03T18:22:44.878Z,72.36
2023-02-03T18:25:16.042Z,72.33
2023-02-03T18:27:43.827Z,72.14
2023-02-03T18:30:12.657Z,72.07
2023-02-03T18:32:40.444Z,72.26
2023-02-03T18:35:12.955Z,71.99
2023-02-03T18:37:42.090Z,72.01
2023-02-03T18:40:10.661Z,72.20
2023-02-03T18:42:38.441Z,72.07
2023-02-03T18:45:06.691Z,72.05
2023-02-03T18:47:35.325Z,72.33
2023-02-03T18:50:03.154Z,72.40
2023-02-03T18:52:31.015Z,72.23
2023-02-03T18:55:00.142Z,72.14
2023-02-03T18:57:27.891Z,72.18
2023-02-03T18:59:55.775Z,71.98
2023-02-03T19:02:25.788Z,72.07
2023-02-03T19:04:53.714Z,72.01
2023-02-03T19:07:21.487Z,71.87
2023-02-03T19:09:49.250Z,71.72
2023-02-03T19:12:18.417Z,71.96
2023-02-03T19:14:46.290Z,71.71
2023-02-03T19:17:14.218Z,71.54
2023-02-03T19:19:42.019Z,71.51
2023-02-03T19:22:09.684Z,71.25
2023-02-03T19:24:37.460Z,71.24
2023-02-03T19:27:05.229Z,70.96
2023-02-03T19:29:35.033Z,70.94
2023-02-03T19:32:03.077Z,70.90
2023-02-03T19:34:30.889Z,70.62
2023-02-03T19:36:59.141Z,70.28
2023-02-03T19:39:26.888Z,70.61
2023-02-03T19:41:54.700Z,70.69
2023-02-03T19:44:22.446Z,70.22
2023-02-03T19:46:51.672Z,70.13
2023-02-03T19:49:19.488Z,70.12
2023-02-03T19:51:47.227Z,69.79
2023-02-03T19:54:16.988Z,69.68
2023-02-03T19:56:45.079Z,69.63
2023-02-03T19:59:12.813Z,69.44
2023-02-03T20:01:40.654Z,69.18
2023-02-03T20:04:09.741Z,69.39
2023-02-03T20:06:37.456Z,69.18
2023-02-03T20:09:06.262Z,69.12
2023-02-03T20:11:34.196Z,69.01
2023-02-03T20:14:01.958Z,69.34
2023-02-03T20:16:29.719Z,69.60
2023-02-03T20:18:58.110Z,69.67
2023-02-03T20:21:27.186Z,69.46
2023-02-03T20:23:54.953Z,69.75
2023-02-03T20:26:22.845Z,69.31
2023-02-03T20:28:50.569Z,69.60
2023-02-03T20:31:18.455Z,69.52
2023-02-03T20:33:46.270Z,69.00
2023-02-03T20:36:14.005Z,69.10
2023-02-03T20:38:43.135Z,69.07
2023-02-03T20:41:12.574Z,68.99
2023-02-03T20:43:40.461Z,69.03
2023-02-03T20:46:12.316Z,68.99
2023-02-03T20:48:40.262Z,69.12
2023-02-03T20:51:11.623Z,68.94
2023-02-03T20:53:40.059Z,68.95
2023-02-03T20:56:14.274Z,69.25
2023-02-03T20:58:44.193Z,69.40
2023-02-03T21:01:16.776Z,69.63
2023-02-03T21:04:02.866Z,69.82
2023-02-03T21:06:32.810Z,70.23
2023-02-03T21:09:09.296Z,70.26
2023-02-03T21:11:38.477Z,70.80
2023-02-03T21:14:18.399Z,71.09
2023-02-03T21:16:47.644Z,71.10
2023-02-03T21:19:26.840Z,71.21
2023-02-03T21:21:54.602Z,71.39
2023-02-03T21:24:26.970Z,71.83
2023-02-03T21:26:57.024Z,71.59
2023-02-03T21:29:27.302Z,71.64
2023-02-03T21:31:55.314Z,72.31
2023-02-03T21:34:28.729Z,72.30
2023-02-03T21:36:57.241Z,72.08
2023-02-03T21:39:30.439Z,72.37
2023-02-03T21:42:03.871Z,72.34
2023-02-03T21:44:35.534Z,72.32
2023-02-03T21:47:06.576Z,72.41
2023-02-03T21:49:36.389Z,72.01
2023-02-03T21:52:04.163Z,71.83
2023-02-03T21:54:34.305Z,72.26
2023-02-03T21:57:03.420Z,72.04
2023-02-03T21:59:42.773Z,72.10
2023-02-03T22:02:52.236Z,72.15
2023-02-03T22:05:20.962Z,72.73
2023-02-03T22:07:48.685Z,72.06
2023-02-03T22:10:16.772Z,72.26
2023-02-03T22:12:45.897Z,72.49
2023-02-03T22:15:13.683Z,72.21
2023-02-03T22:17:41.551Z,72.40
2023-02-03T22:20:10.009Z,72.18
2023-02-03T22:22:37.760Z,72.36
2023-02-03T22:25:05.993Z,72.24
2023-02-03T22:27:33.760Z,72.21
2023-02-03T22:30:02.873Z,72.49
2023-02-03T22:32:30.631Z,72.46
2023-02-03T22:34:58.415Z,72.16
2023-02-03T22:37:26.145Z,72.48
2023-02-03T22:39:53.894Z,72.17
2023-02-03T22:42:22.367Z,71.98
2023-02-03T22:44:50.088Z,72.06
2023-02-03T22:47:19.228Z,72.37
2023-02-03T22:49:46.990Z,72.60
2023-02-03T22:52:14.721Z,72.57
2023-02-03T22:54:42.885Z,72.17
2023-02-03T22:57:10.931Z,71.85
2023-02-03T22:59:38.659Z,72.19
2023-02-03T23:02:06.393Z,71.84
2023-02-03T23:04:35.663Z,72.26
2023-02-03T23:07:03.427Z,71.97
2023-02-03T23:09:31.254Z,71.69
2023-02-03T23:11:59.289Z,71.47
2023-02-03T23:14:27.189Z,71.56
2023-02-03T23:16:55.008Z,71.57
2023-02-03T23:19:22.725Z,71.65
2023-02-03T23:21:51.812Z,71.71
2023-02-03T23:24:19.609Z,72.10
2023-02-03T23:26:47.320Z,72.23
2023-02-03T23:29:15.037Z,71.82
2023-02-03T23:31:42.937Z,71.80
2023-02-03T23:34:28.360Z,71.79
2023-02-03T23:36:57.453Z,71.80
2023-02-03T23:39:25.172Z,72.36
2023-02-03T23:41:52.923Z,72.24
2023-02-03T23:44:20.647Z,72.18
2023-02-03T23:46:48.437Z,72.29
2023-02-03T23:49:16.174Z,72.28
2023-02-03T23:51:43.962Z,72.19
2023-02-03T23:54:13.071Z,71.55
2023-02-03T23:56:40.797Z,72.40
2023-02-03T23:59:09.554Z,71.74
